sensor_id;sensor_type;location;lat;lon;timestamp;P1;durP1;ratioP1;P2;durP2;ratioP2
70459;SDS011;57920;54.796;9.430;2022-08-21T00:00:37;2.67;;;1.70;;
70459;SDS011;57920;54.796;9.430;2022-08-21T00:03:04;2.90;;;1.70;;
70459;SDS011;57920;54.796;9.430;2022-08-21T00:05:35;3.17;;;1.73;;
70459;SDS011;57920;54.796;9.430;2022-08-21T00:08:02;2.07;;;1.80;;
70459;SDS011;57920;54.796;9.430;2022-08-21T00:10:28;4.43;;;1.90;;
70459;SDS011;57920;54.796;9.430;2022-08-21T00:12:54;2.13;;;1.80;;
70459;SDS011;57920;54.796;9.430;2022-08-21T00:15:22;1.97;;;1.40;;
70459;SDS011;57920;54.796;9.430;2022-08-21T00:17:53;3.80;;;2.20;;
70459;SDS011;57920;54.796;9.430;2022-08-21T00:20:20;2.43;;;1.57;;
70459;SDS011;57920;54.796;9.430;2022-08-21T00:22:46;2.87;;;1.77;;
70459;SDS011;57920;54.796;9.430;2022-08-21T00:25:13;1.67;;;1.57;;
70459;SDS011;57920;54.796;9.430;2022-08-21T00:27:39;2.20;;;1.83;;
70459;SDS011;57920;54.796;9.430;2022-08-21T00:30:07;3.83;;;1.80;;
70459;SDS011;57920;54.796;9.430;2022-08-21T00:32:34;3.00;;;1.87;;
70459;SDS011;57920;54.796;9.430;2022-08-21T00:35:02;2.77;;;1.70;;
70459;SDS011;57920;54.796;9.430;2022-08-21T00:37:29;3.07;;;1.87;;
70459;SDS011;57920;54.796;9.430;2022-08-21T00:39:54;2.00;;;1.57;;
70459;SDS011;57920;54.796;9.430;2022-08-21T00:42:20;2.93;;;1.87;;
70459;SDS011;57920;54.796;9.430;2022-08-21T00:44:47;3.13;;;1.33;;
70459;SDS011;57920;54.796;9.430;2022-08-21T00:47:14;4.20;;;1.77;;
70459;SDS011;57920;54.796;9.430;2022-08-21T00:49:40;4.10;;;1.80;;
70459;SDS011;57920;54.796;9.430;2022-08-21T00:52:07;2.30;;;1.70;;
70459;SDS011;57920;54.796;9.430;2022-08-21T00:54:42;2.00;;;1.63;;
70459;SDS011;57920;54.796;9.430;2022-08-21T00:57:10;2.63;;;1.77;;
70459;SDS011;57920;54.796;9.430;2022-08-21T00:59:40;3.07;;;1.80;;
70459;SDS011;57920;54.796;9.430;2022-08-21T01:02:13;3.20;;;1.90;;
70459;SDS011;57920;54.796;9.430;2022-08-21T01:04:39;2.17;;;1.63;;
70459;SDS011;57920;54.796;9.430;2022-08-21T01:07:05;2.33;;;1.73;;
70459;SDS011;57920;54.796;9.430;2022-08-21T01:09:31;1.90;;;1.70;;
70459;SDS011;57920;54.796;9.430;2022-08-21T01:11:57;3.40;;;2.00;;
70459;SDS011;57920;54.796;9.430;2022-08-21T01:14:23;2.53;;;1.90;;
70459;SDS011;57920;54.796;9.430;2022-08-21T01:16:50;3.03;;;1.90;;
70459;SDS011;57920;54.796;9.430;2022-08-21T01:19:18;3.57;;;2.23;;
70459;SDS011;57920;54.796;9.430;2022-08-21T01:21:45;2.37;;;1.70;;
70459;SDS011;57920;54.796;9.430;2022-08-21T01:24:11;2.33;;;1.63;;
70459;SDS011;57920;54.796;9.430;2022-08-21T01:26:37;4.20;;;2.40;;
70459;SDS011;57920;54.796;9.430;2022-08-21T01:29:12;4.00;;;1.70;;
70459;SDS011;57920;54.796;9.430;2022-08-21T01:31:50;3.07;;;1.73;;
70459;SDS011;57920;54.796;9.430;2022-08-21T01:34:16;1.63;;;1.53;;
70459;SDS011;57920;54.796;9.430;2022-08-21T01:36:43;2.10;;;1.40;;
70459;SDS011;57920;54.796;9.430;2022-08-21T01:39:10;2.77;;;1.83;;
70459;SDS011;57920;54.796;9.430;2022-08-21T01:41:36;4.77;;;2.17;;
70459;SDS011;57920;54.796;9.430;2022-08-21T01:44:02;3.93;;;2.10;;
70459;SDS011;57920;54.796;9.430;2022-08-21T01:46:27;4.67;;;1.83;;
70459;SDS011;57920;54.796;9.430;2022-08-21T01:48:53;2.03;;;1.77;;
70459;SDS011;57920;54.796;9.430;2022-08-21T01:51:19;3.83;;;1.90;;
70459;SDS011;57920;54.796;9.430;2022-08-21T01:53:45;3.50;;;1.70;;
70459;SDS011;57920;54.796;9.430;2022-08-21T01:56:11;2.00;;;1.77;;
70459;SDS011;57920;54.796;9.430;2022-08-21T01:58:41;3.50;;;2.13;;
70459;SDS011;57920;54.796;9.430;2022-08-21T02:01:09;3.53;;;1.90;;
70459;SDS011;57920;54.796;9.430;2022-08-21T02:03:35;3.23;;;1.90;;
70459;SDS011;57920;54.796;9.430;2022-08-21T02:06:01;2.63;;;1.90;;
70459;SDS011;57920;54.796;9.430;2022-08-21T02:08:28;3.20;;;2.03;;
70459;SDS011;57920;54.796;9.430;2022-08-21T02:10:53;3.33;;;1.50;;
70459;SDS011;57920;54.796;9.430;2022-08-21T02:13:19;3.43;;;1.80;;
70459;SDS011;57920;54.796;9.430;2022-08-21T02:15:45;2.33;;;1.87;;
70459;SDS011;57920;54.796;9.430;2022-08-21T02:18:11;3.57;;;1.73;;
70459;SDS011;57920;54.796;9.430;2022-08-21T02:20:38;2.87;;;2.07;;
70459;SDS011;57920;54.796;9.430;2022-08-21T02:23:07;2.43;;;1.90;;
70459;SDS011;57920;54.796;9.430;2022-08-21T02:25:34;2.10;;;1.50;;
70459;SDS011;57920;54.796;9.430;2022-08-21T02:28:02;1.97;;;1.43;;
70459;SDS011;57920;54.796;9.430;2022-08-21T02:30:30;2.60;;;1.77;;
70459;SDS011;57920;54.796;9.430;2022-08-21T02:32:58;1.93;;;1.47;;
70459;SDS011;57920;54.796;9.430;2022-08-21T02:35:24;3.20;;;2.20;;
70459;SDS011;57920;54.796;9.430;2022-08-21T02:37:57;2.63;;;1.93;;
70459;SDS011;57920;54.796;9.430;2022-08-21T02:40:26;2.67;;;1.80;;
70459;SDS011;57920;54.796;9.430;2022-08-21T02:42:54;6.57;;;1.90;;
70459;SDS011;57920;54.796;9.430;2022-08-21T02:45:19;2.80;;;2.27;;
70459;SDS011;57920;54.796;9.430;2022-08-21T02:47:49;2.50;;;1.93;;
70459;SDS011;57920;54.796;9.430;2022-08-21T02:50:22;2.63;;;2.00;;
70459;SDS011;57920;54.796;9.430;2022-08-21T02:52:50;2.10;;;1.40;;
70459;SDS011;57920;54.796;9.430;2022-08-21T02:55:17;3.27;;;2.07;;
70459;SDS011;57920;54.796;9.430;2022-08-21T02:57:45;3.23;;;2.07;;
70459;SDS011;57920;54.796;9.430;2022-08-21T03:00:12;4.30;;;2.00;;
70459;SDS011;57920;54.796;9.430;2022-08-21T03:02:39;2.40;;;1.53;;
70459;SDS011;57920;54.796;9.430;2022-08-21T03:05:05;2.40;;;1.93;;
70459;SDS011;57920;54.796;9.430;2022-08-21T03:07:32;3.00;;;1.70;;
70459;SDS011;57920;54.796;9.430;2022-08-21T03:09:58;3.87;;;2.13;;
70459;SDS011;57920;54.796;9.430;2022-08-21T03:12:24;3.83;;;2.10;;
70459;SDS011;57920;54.796;9.430;2022-08-21T03:14:49;2.73;;;1.63;;
70459;SDS011;57920;54.796;9.430;2022-08-21T03:17:15;2.20;;;1.80;;
70459;SDS011;57920;54.796;9.430;2022-08-21T03:19:41;1.97;;;1.40;;
70459;SDS011;57920;54.796;9.430;2022-08-21T03:22:06;2.67;;;1.80;;
70459;SDS011;57920;54.796;9.430;2022-08-21T03:24:32;3.37;;;1.90;;
70459;SDS011;57920;54.796;9.430;2022-08-21T03:26:57;2.10;;;1.60;;
70459;SDS011;57920;54.796;9.430;2022-08-21T03:29:23;5.47;;;1.90;;
70459;SDS011;57920;54.796;9.430;2022-08-21T03:31:49;4.10;;;2.10;;
70459;SDS011;57920;54.796;9.430;2022-08-21T03:34:14;3.17;;;2.03;;
70459;SDS011;57920;54.796;9.430;2022-08-21T03:36:40;2.57;;;1.60;;
70459;SDS011;57920;54.796;9.430;2022-08-21T03:39:05;2.13;;;1.93;;
70459;SDS011;57920;54.796;9.430;2022-08-21T03:41:31;2.40;;;1.73;;
70459;SDS011;57920;54.796;9.430;2022-08-21T03:43:57;2.63;;;1.60;;
70459;SDS011;57920;54.796;9.430;2022-08-21T03:46:23;3.43;;;2.33;;
70459;SDS011;57920;54.796;9.430;2022-08-21T03:48:49;3.67;;;1.60;;
70459;SDS011;57920;54.796;9.430;2022-08-21T03:51:14;2.13;;;1.70;;
70459;SDS011;57920;54.796;9.430;2022-08-21T03:53:40;2.17;;;1.70;;
70459;SDS011;57920;54.796;9.430;2022-08-21T03:56:06;4.07;;;1.73;;
70459;SDS011;57920;54.796;9.430;2022-08-21T03:58:32;1.30;;;1.10;;
70459;SDS011;57920;54.796;9.430;2022-08-21T04:00:59;3.30;;;1.70;;
70459;SDS011;57920;54.796;9.430;2022-08-21T04:03:25;2.77;;;1.93;;
70459;SDS011;57920;54.796;9.430;2022-08-21T04:05:51;3.23;;;2.00;;
70459;SDS011;57920;54.796;9.430;2022-08-21T04:08:17;2.90;;;1.37;;
70459;SDS011;57920;54.796;9.430;2022-08-21T04:10:43;2.07;;;1.50;;
70459;SDS011;57920;54.796;9.430;2022-08-21T04:13:12;3.23;;;2.10;;
70459;SDS011;57920;54.796;9.430;2022-08-21T04:15:39;1.93;;;1.80;;
70459;SDS011;57920;54.796;9.430;2022-08-21T04:18:06;2.07;;;1.50;;
70459;SDS011;57920;54.796;9.430;2022-08-21T04:20:33;2.20;;;1.60;;
70459;SDS011;57920;54.796;9.430;2022-08-21T04:23:00;2.93;;;1.73;;
70459;SDS011;57920;54.796;9.430;2022-08-21T04:25:27;2.90;;;1.63;;
70459;SDS011;57920;54.796;9.430;2022-08-21T04:27:53;2.70;;;1.60;;
70459;SDS011;57920;54.796;9.430;2022-08-21T04:30:20;2.80;;;1.50;;
70459;SDS011;57920;54.796;9.430;2022-08-21T04:32:46;3.23;;;1.97;;
70459;SDS011;57920;54.796;9.430;2022-08-21T04:35:14;3.93;;;1.97;;
70459;SDS011;57920;54.796;9.430;2022-08-21T04:37:41;1.93;;;1.60;;
70459;SDS011;57920;54.796;9.430;2022-08-21T04:40:08;3.20;;;1.77;;
70459;SDS011;57920;54.796;9.430;2022-08-21T04:42:40;3.17;;;1.70;;
70459;SDS011;57920;54.796;9.430;2022-08-21T04:45:18;2.43;;;1.90;;
70459;SDS011;57920;54.796;9.430;2022-08-21T04:47:49;4.30;;;2.17;;
70459;SDS011;57920;54.796;9.430;2022-08-21T04:50:20;2.00;;;1.50;;
70459;SDS011;57920;54.796;9.430;2022-08-21T04:52:49;2.33;;;1.87;;
70459;SDS011;57920;54.796;9.430;2022-08-21T04:55:16;2.70;;;1.50;;
70459;SDS011;57920;54.796;9.430;2022-08-21T04:57:42;2.47;;;1.90;;
70459;SDS011;57920;54.796;9.430;2022-08-21T05:00:08;2.63;;;1.73;;
70459;SDS011;57920;54.796;9.430;2022-08-21T05:02:35;2.47;;;1.97;;
70459;SDS011;57920;54.796;9.430;2022-08-21T05:05:02;2.50;;;1.80;;
70459;SDS011;57920;54.796;9.430;2022-08-21T05:07:29;3.40;;;1.90;;
70459;SDS011;57920;54.796;9.430;2022-08-21T05:09:56;2.50;;;1.60;;
70459;SDS011;57920;54.796;9.430;2022-08-21T05:12:24;3.47;;;2.20;;
70459;SDS011;57920;54.796;9.430;2022-08-21T05:14:49;4.20;;;1.97;;
70459;SDS011;57920;54.796;9.430;2022-08-21T05:17:15;2.70;;;1.17;;
70459;SDS011;57920;54.796;9.430;2022-08-21T05:19:41;2.27;;;1.40;;
70459;SDS011;57920;54.796;9.430;2022-08-21T05:22:06;2.70;;;1.30;;
70459;SDS011;57920;54.796;9.430;2022-08-21T05:24:32;1.77;;;1.13;;
70459;SDS011;57920;54.796;9.430;2022-08-21T05:26:58;4.83;;;2.00;;
70459;SDS011;57920;54.796;9.430;2022-08-21T05:29:24;1.80;;;1.70;;
70459;SDS011;57920;54.796;9.430;2022-08-21T05:31:55;2.43;;;1.57;;
70459;SDS011;57920;54.796;9.430;2022-08-21T05:34:22;1.77;;;1.40;;
70459;SDS011;57920;54.796;9.430;2022-08-21T05:36:48;2.73;;;1.57;;
70459;SDS011;57920;54.796;9.430;2022-08-21T05:39:14;2.00;;;1.50;;
70459;SDS011;57920;54.796;9.430;2022-08-21T05:41:40;2.20;;;1.30;;
70459;SDS011;57920;54.796;9.430;2022-08-21T05:44:05;2.73;;;2.00;;
70459;SDS011;57920;54.796;9.430;2022-08-21T05:46:31;2.07;;;1.20;;
70459;SDS011;57920;54.796;9.430;2022-08-21T05:48:56;1.57;;;1.40;;
70459;SDS011;57920;54.796;9.430;2022-08-21T05:51:22;2.70;;;1.57;;
70459;SDS011;57920;54.796;9.430;2022-08-21T05:53:48;3.50;;;1.90;;
70459;SDS011;57920;54.796;9.430;2022-08-21T05:56:14;2.07;;;1.60;;
70459;SDS011;57920;54.796;9.430;2022-08-21T05:58:40;1.83;;;1.70;;
70459;SDS011;57920;54.796;9.430;2022-08-21T06:01:05;3.67;;;1.90;;
70459;SDS011;57920;54.796;9.430;2022-08-21T06:03:34;1.87;;;1.40;;
70459;SDS011;57920;54.796;9.430;2022-08-21T06:06:02;2.70;;;1.80;;
70459;SDS011;57920;54.796;9.430;2022-08-21T06:08:29;2.90;;;1.23;;
70459;SDS011;57920;54.796;9.430;2022-08-21T06:10:55;3.10;;;1.50;;
70459;SDS011;57920;54.796;9.430;2022-08-21T06:13:23;2.67;;;1.77;;
70459;SDS011;57920;54.796;9.430;2022-08-21T06:15:49;2.53;;;1.60;;
70459;SDS011;57920;54.796;9.430;2022-08-21T06:18:25;3.33;;;1.80;;
70459;SDS011;57920;54.796;9.430;2022-08-21T06:20:50;2.60;;;1.60;;
70459;SDS011;57920;54.796;9.430;2022-08-21T06:23:16;3.30;;;1.70;;
70459;SDS011;57920;54.796;9.430;2022-08-21T06:25:42;3.33;;;1.60;;
70459;SDS011;57920;54.796;9.430;2022-08-21T06:28:08;3.27;;;2.03;;
70459;SDS011;57920;54.796;9.430;2022-08-21T06:30:35;2.40;;;1.70;;
70459;SDS011;57920;54.796;9.430;2022-08-21T06:33:01;2.50;;;1.70;;
70459;SDS011;57920;54.796;9.430;2022-08-21T06:35:27;1.60;;;1.30;;
70459;SDS011;57920;54.796;9.430;2022-08-21T06:37:54;1.80;;;1.70;;
70459;SDS011;57920;54.796;9.430;2022-08-21T06:40:20;2.43;;;1.47;;
70459;SDS011;57920;54.796;9.430;2022-08-21T06:42:46;4.37;;;1.23;;
70459;SDS011;57920;54.796;9.430;2022-08-21T06:45:12;4.07;;;1.90;;
70459;SDS011;57920;54.796;9.430;2022-08-21T06:47:38;1.57;;;1.13;;
70459;SDS011;57920;54.796;9.430;2022-08-21T06:50:04;4.40;;;1.60;;
70459;SDS011;57920;54.796;9.430;2022-08-21T06:52:32;2.03;;;1.77;;
70459;SDS011;57920;54.796;9.430;2022-08-21T06:54:58;3.00;;;1.57;;
70459;SDS011;57920;54.796;9.430;2022-08-21T06:57:24;2.77;;;1.60;;
70459;SDS011;57920;54.796;9.430;2022-08-21T06:59:50;2.33;;;1.37;;
70459;SDS011;57920;54.796;9.430;2022-08-21T07:02:16;2.63;;;1.67;;
70459;SDS011;57920;54.796;9.430;2022-08-21T07:04:42;1.60;;;1.50;;
70459;SDS011;57920;54.796;9.430;2022-08-21T07:07:08;1.90;;;1.80;;
70459;SDS011;57920;54.796;9.430;2022-08-21T07:09:34;1.43;;;1.10;;
70459;SDS011;57920;54.796;9.430;2022-08-21T07:11:59;2.50;;;1.20;;
70459;SDS011;57920;54.796;9.430;2022-08-21T07:14:26;1.70;;;1.60;;
70459;SDS011;57920;54.796;9.430;2022-08-21T07:16:52;2.80;;;1.70;;
70459;SDS011;57920;54.796;9.430;2022-08-21T07:19:18;2.13;;;1.67;;
70459;SDS011;57920;54.796;9.430;2022-08-21T07:21:44;2.83;;;1.60;;
70459;SDS011;57920;54.796;9.430;2022-08-21T07:24:10;1.83;;;1.37;;
70459;SDS011;57920;54.796;9.430;2022-08-21T07:26:35;1.87;;;1.47;;
70459;SDS011;57920;54.796;9.430;2022-08-21T07:29:01;3.27;;;1.53;;
70459;SDS011;57920;54.796;9.430;2022-08-21T07:31:27;1.97;;;1.53;;
70459;SDS011;57920;54.796;9.430;2022-08-21T07:33:53;1.70;;;1.07;;
70459;SDS011;57920;54.796;9.430;2022-08-21T07:36:19;1.73;;;1.30;;
70459;SDS011;57920;54.796;9.430;2022-08-21T07:38:45;2.43;;;1.30;;
70459;SDS011;57920;54.796;9.430;2022-08-21T07:41:15;3.20;;;1.67;;
70459;SDS011;57920;54.796;9.430;2022-08-21T07:43:42;1.30;;;1.20;;
70459;SDS011;57920;54.796;9.430;2022-08-21T07:46:08;1.93;;;1.47;;
70459;SDS011;57920;54.796;9.430;2022-08-21T07:48:34;2.00;;;1.40;;
70459;SDS011;57920;54.796;9.430;2022-08-21T07:51:01;1.90;;;1.40;;
70459;SDS011;57920;54.796;9.430;2022-08-21T07:53:32;3.30;;;1.63;;
70459;SDS011;57920;54.796;9.430;2022-08-21T07:55:59;3.27;;;1.37;;
70459;SDS011;57920;54.796;9.430;2022-08-21T07:58:25;2.37;;;1.43;;
70459;SDS011;57920;54.796;9.430;2022-08-21T08:00:51;2.07;;;1.20;;
70459;SDS011;57920;54.796;9.430;2022-08-21T08:03:16;2.57;;;1.23;;
70459;SDS011;57920;54.796;9.430;2022-08-21T08:05:42;2.20;;;1.23;;
70459;SDS011;57920;54.796;9.430;2022-08-21T08:08:08;1.57;;;1.40;;
70459;SDS011;57920;54.796;9.430;2022-08-21T08:10:33;1.40;;;1.27;;
70459;SDS011;57920;54.796;9.430;2022-08-21T08:13:00;1.77;;;1.43;;
70459;SDS011;57920;54.796;9.430;2022-08-21T08:15:26;1.70;;;1.30;;
70459;SDS011;57920;54.796;9.430;2022-08-21T08:17:52;1.73;;;1.50;;
70459;SDS011;57920;54.796;9.430;2022-08-21T08:20:19;1.90;;;1.70;;
70459;SDS011;57920;54.796;9.430;2022-08-21T08:22:46;3.17;;;1.43;;
70459;SDS011;57920;54.796;9.430;2022-08-21T08:25:13;2.40;;;1.27;;
70459;SDS011;57920;54.796;9.430;2022-08-21T08:27:39;2.20;;;1.40;;
70459;SDS011;57920;54.796;9.430;2022-08-21T08:30:05;1.97;;;1.27;;
70459;SDS011;57920;54.796;9.430;2022-08-21T08:32:33;1.03;;;0.93;;
70459;SDS011;57920;54.796;9.430;2022-08-21T08:34:58;1.47;;;1.10;;
70459;SDS011;57920;54.796;9.430;2022-08-21T08:37:24;3.37;;;1.47;;
70459;SDS011;57920;54.796;9.430;2022-08-21T08:39:50;1.60;;;1.20;;
70459;SDS011;57920;54.796;9.430;2022-08-21T08:44:59;2.87;;;1.60;;
70459;SDS011;57920;54.796;9.430;2022-08-21T08:47:32;1.77;;;1.63;;
70459;SDS011;57920;54.796;9.430;2022-08-21T08:52:41;1.80;;;1.40;;
70459;SDS011;57920;54.796;9.430;2022-08-21T08:55:15;0.93;;;0.77;;
70459;SDS011;57920;54.796;9.430;2022-08-21T08:57:44;1.10;;;1.00;;
70459;SDS011;57920;54.796;9.430;2022-08-21T09:00:13;2.10;;;1.30;;
70459;SDS011;57920;54.796;9.430;2022-08-21T09:02:42;1.90;;;1.10;;
70459;SDS011;57920;54.796;9.430;2022-08-21T09:05:21;1.67;;;1.07;;
70459;SDS011;57920;54.796;9.430;2022-08-21T09:24:44;1.30;;;0.97;;
70459;SDS011;57920;54.796;9.430;2022-08-21T09:27:23;1.77;;;1.13;;
70459;SDS011;57920;54.796;9.430;2022-08-21T09:29:53;2.00;;;1.40;;
70459;SDS011;57920;54.796;9.430;2022-08-21T09:32:29;1.57;;;1.20;;
70459;SDS011;57920;54.796;9.430;2022-08-21T09:37:32;1.37;;;1.03;;
70459;SDS011;57920;54.796;9.430;2022-08-21T09:39:59;1.23;;;1.00;;
70459;SDS011;57920;54.796;9.430;2022-08-21T09:42:28;3.40;;;1.30;;
70459;SDS011;57920;54.796;9.430;2022-08-21T09:45:12;2.43;;;1.40;;
70459;SDS011;57920;54.796;9.430;2022-08-21T09:47:42;2.00;;;1.20;;
70459;SDS011;57920;54.796;9.430;2022-08-21T09:50:13;2.10;;;1.27;;
70459;SDS011;57920;54.796;9.430;2022-08-21T09:52:45;1.13;;;1.00;;
70459;SDS011;57920;54.796;9.430;2022-08-21T09:55:26;1.97;;;1.50;;
70459;SDS011;57920;54.796;9.430;2022-08-21T09:58:18;2.07;;;1.00;;
70459;SDS011;57920;54.796;9.430;2022-08-21T10:00:45;1.23;;;1.13;;
70459;SDS011;57920;54.796;9.430;2022-08-21T10:03:21;1.10;;;1.00;;
70459;SDS011;57920;54.796;9.430;2022-08-21T10:05:50;1.37;;;1.17;;
70459;SDS011;57920;54.796;9.430;2022-08-21T10:08:19;2.10;;;1.10;;
70459;SDS011;57920;54.796;9.430;2022-08-21T10:10:49;1.27;;;0.90;;
70459;SDS011;57920;54.796;9.430;2022-08-21T10:13:33;2.73;;;1.53;;
70459;SDS011;57920;54.796;9.430;2022-08-21T10:27:43;1.37;;;0.77;;
70459;SDS011;57920;54.796;9.430;2022-08-21T10:30:21;0.67;;;0.60;;
70459;SDS011;57920;54.796;9.430;2022-08-21T10:33:04;1.17;;;1.07;;
70459;SDS011;57920;54.796;9.430;2022-08-21T10:35:37;2.07;;;1.23;;
70459;SDS011;57920;54.796;9.430;2022-08-21T10:40:55;2.43;;;1.07;;
70459;SDS011;57920;54.796;9.430;2022-08-21T10:46:33;1.23;;;1.13;;
70459;SDS011;57920;54.796;9.430;2022-08-21T10:55:11;1.03;;;0.83;;
70459;SDS011;57920;54.796;9.430;2022-08-21T10:57:46;1.77;;;1.10;;
70459;SDS011;57920;54.796;9.430;2022-08-21T11:00:47;1.03;;;0.80;;
70459;SDS011;57920;54.796;9.430;2022-08-21T11:03:17;1.83;;;1.10;;
70459;SDS011;57920;54.796;9.430;2022-08-21T11:05:55;2.70;;;1.03;;
70459;SDS011;57920;54.796;9.430;2022-08-21T11:08:26;1.77;;;0.90;;
70459;SDS011;57920;54.796;9.430;2022-08-21T11:13:55;0.97;;;0.80;;
70459;SDS011;57920;54.796;9.430;2022-08-21T11:16:44;1.90;;;0.73;;
70459;SDS011;57920;54.796;9.430;2022-08-21T11:19:16;1.20;;;1.10;;
70459;SDS011;57920;54.796;9.430;2022-08-21T11:21:54;1.30;;;1.00;;
70459;SDS011;57920;54.796;9.430;2022-08-21T11:24:42;0.87;;;0.80;;
70459;SDS011;57920;54.796;9.430;2022-08-21T11:27:21;1.67;;;1.33;;
70459;SDS011;57920;54.796;9.430;2022-08-21T11:30:08;1.27;;;0.93;;
70459;SDS011;57920;54.796;9.430;2022-08-21T11:43:49;0.97;;;0.77;;
70459;SDS011;57920;54.796;9.430;2022-08-21T11:46:20;1.50;;;0.90;;
70459;SDS011;57920;54.796;9.430;2022-08-21T11:52:06;0.97;;;0.83;;
70459;SDS011;57920;54.796;9.430;2022-08-21T11:54:37;1.47;;;1.30;;
70459;SDS011;57920;54.796;9.430;2022-08-21T11:57:12;0.90;;;0.80;;
70459;SDS011;57920;54.796;9.430;2022-08-21T11:59:44;0.90;;;0.73;;
70459;SDS011;57920;54.796;9.430;2022-08-21T12:02:21;1.00;;;1.00;;
70459;SDS011;57920;54.796;9.430;2022-08-21T12:04:51;1.07;;;0.97;;
70459;SDS011;57920;54.796;9.430;2022-08-21T12:07:32;1.03;;;0.90;;
70459;SDS011;57920;54.796;9.430;2022-08-21T12:09:58;1.10;;;0.70;;
70459;SDS011;57920;54.796;9.430;2022-08-21T12:15:15;1.87;;;0.87;;
70459;SDS011;57920;54.796;9.430;2022-08-21T12:18:03;2.43;;;0.87;;
70459;SDS011;57920;54.796;9.430;2022-08-21T12:20:43;1.53;;;0.90;;
70459;SDS011;57920;54.796;9.430;2022-08-21T12:23:29;1.63;;;1.07;;
70459;SDS011;57920;54.796;9.430;2022-08-21T12:26:24;0.60;;;0.60;;
70459;SDS011;57920;54.796;9.430;2022-08-21T12:32:04;1.20;;;1.10;;
70459;SDS011;57920;54.796;9.430;2022-08-21T12:37:44;1.73;;;0.80;;
70459;SDS011;57920;54.796;9.430;2022-08-21T12:40:26;1.93;;;1.00;;
70459;SDS011;57920;54.796;9.430;2022-08-21T12:43:05;2.70;;;1.10;;
70459;SDS011;57920;54.796;9.430;2022-08-21T12:45:42;1.80;;;0.87;;
70459;SDS011;57920;54.796;9.430;2022-08-21T12:48:14;1.43;;;0.80;;
70459;SDS011;57920;54.796;9.430;2022-08-21T12:50:56;1.30;;;0.70;;
70459;SDS011;57920;54.796;9.430;2022-08-21T12:56:04;1.53;;;0.97;;
70459;SDS011;57920;54.796;9.430;2022-08-21T12:58:39;1.23;;;0.90;;
70459;SDS011;57920;54.796;9.430;2022-08-21T13:03:57;1.13;;;1.03;;
70459;SDS011;57920;54.796;9.430;2022-08-21T13:06:36;1.43;;;1.00;;
70459;SDS011;57920;54.796;9.430;2022-08-21T13:09:05;1.43;;;0.83;;
70459;SDS011;57920;54.796;9.430;2022-08-21T13:11:34;1.20;;;1.10;;
70459;SDS011;57920;54.796;9.430;2022-08-21T13:14:01;1.30;;;1.03;;
70459;SDS011;57920;54.796;9.430;2022-08-21T13:16:28;1.90;;;1.00;;
70459;SDS011;57920;54.796;9.430;2022-08-21T13:19:00;0.90;;;0.90;;
70459;SDS011;57920;54.796;9.430;2022-08-21T13:21:31;1.03;;;0.80;;
70459;SDS011;57920;54.796;9.430;2022-08-21T13:24:23;0.87;;;0.70;;
70459;SDS011;57920;54.796;9.430;2022-08-21T13:26:53;1.43;;;0.90;;
70459;SDS011;57920;54.796;9.430;2022-08-21T13:29:21;2.10;;;1.10;;
70459;SDS011;57920;54.796;9.430;2022-08-21T13:31:49;1.33;;;0.90;;
70459;SDS011;57920;54.796;9.430;2022-08-21T13:34:24;1.10;;;0.90;;
70459;SDS011;57920;54.796;9.430;2022-08-21T13:36:55;1.23;;;1.00;;
70459;SDS011;57920;54.796;9.430;2022-08-21T13:39:23;2.50;;;1.00;;
70459;SDS011;57920;54.796;9.430;2022-08-21T13:41:50;0.70;;;0.70;;
70459;SDS011;57920;54.796;9.430;2022-08-21T13:44:21;1.57;;;1.00;;
70459;SDS011;57920;54.796;9.430;2022-08-21T13:46:51;0.90;;;0.90;;
70459;SDS011;57920;54.796;9.430;2022-08-21T13:49:19;1.63;;;0.97;;
70459;SDS011;57920;54.796;9.430;2022-08-21T13:51:48;1.30;;;0.97;;
70459;SDS011;57920;54.796;9.430;2022-08-21T13:54:24;1.67;;;1.00;;
70459;SDS011;57920;54.796;9.430;2022-08-21T13:56:53;2.20;;;0.83;;
70459;SDS011;57920;54.796;9.430;2022-08-21T13:59:28;1.00;;;0.80;;
70459;SDS011;57920;54.796;9.430;2022-08-21T14:02:00;1.67;;;0.93;;
70459;SDS011;57920;54.796;9.430;2022-08-21T14:04:39;2.13;;;1.40;;
70459;SDS011;57920;54.796;9.430;2022-08-21T14:07:40;1.37;;;0.80;;
70459;SDS011;57920;54.796;9.430;2022-08-21T14:10:10;1.63;;;0.83;;
70459;SDS011;57920;54.796;9.430;2022-08-21T14:12:43;3.33;;;1.17;;
70459;SDS011;57920;54.796;9.430;2022-08-21T14:15:12;0.90;;;0.90;;
70459;SDS011;57920;54.796;9.430;2022-08-21T14:17:41;1.13;;;0.70;;
70459;SDS011;57920;54.796;9.430;2022-08-21T14:20:09;2.33;;;0.90;;
70459;SDS011;57920;54.796;9.430;2022-08-21T14:22:39;0.90;;;0.90;;
70459;SDS011;57920;54.796;9.430;2022-08-21T14:27:57;1.03;;;0.80;;
70459;SDS011;57920;54.796;9.430;2022-08-21T14:30:42;0.67;;;0.67;;
70459;SDS011;57920;54.796;9.430;2022-08-21T14:33:09;1.57;;;1.10;;
70459;SDS011;57920;54.796;9.430;2022-08-21T14:35:36;1.93;;;1.00;;
70459;SDS011;57920;54.796;9.430;2022-08-21T14:38:02;1.00;;;0.90;;
70459;SDS011;57920;54.796;9.430;2022-08-21T14:40:35;4.67;;;1.80;;
70459;SDS011;57920;54.796;9.430;2022-08-21T14:43:01;2.90;;;1.33;;
70459;SDS011;57920;54.796;9.430;2022-08-21T14:45:28;5.87;;;1.90;;
70459;SDS011;57920;54.796;9.430;2022-08-21T14:47:55;6.80;;;1.90;;
70459;SDS011;57920;54.796;9.430;2022-08-21T14:50:21;5.40;;;2.17;;
70459;SDS011;57920;54.796;9.430;2022-08-21T14:52:47;4.93;;;2.00;;
70459;SDS011;57920;54.796;9.430;2022-08-21T14:55:14;5.60;;;2.30;;
70459;SDS011;57920;54.796;9.430;2022-08-21T14:57:41;3.63;;;1.83;;
70459;SDS011;57920;54.796;9.430;2022-08-21T15:00:13;4.73;;;1.87;;
70459;SDS011;57920;54.796;9.430;2022-08-21T15:02:41;7.67;;;2.27;;
70459;SDS011;57920;54.796;9.430;2022-08-21T15:05:07;4.67;;;1.83;;
70459;SDS011;57920;54.796;9.430;2022-08-21T15:07:33;5.10;;;1.57;;
70459;SDS011;57920;54.796;9.430;2022-08-21T15:09:59;3.77;;;1.87;;
70459;SDS011;57920;54.796;9.430;2022-08-21T15:12:24;4.03;;;2.00;;
70459;SDS011;57920;54.796;9.430;2022-08-21T15:14:50;3.40;;;1.97;;
70459;SDS011;57920;54.796;9.430;2022-08-21T15:17:16;6.50;;;2.30;;
70459;SDS011;57920;54.796;9.430;2022-08-21T15:19:42;7.17;;;2.60;;
70459;SDS011;57920;54.796;9.430;2022-08-21T15:22:07;6.23;;;2.23;;
70459;SDS011;57920;54.796;9.430;2022-08-21T15:24:33;4.97;;;2.50;;
70459;SDS011;57920;54.796;9.430;2022-08-21T15:26:59;4.07;;;1.87;;
70459;SDS011;57920;54.796;9.430;2022-08-21T15:29:28;5.20;;;2.23;;
70459;SDS011;57920;54.796;9.430;2022-08-21T15:31:56;5.47;;;2.10;;
70459;SDS011;57920;54.796;9.430;2022-08-21T15:34:24;6.70;;;2.10;;
70459;SDS011;57920;54.796;9.430;2022-08-21T15:36:52;7.23;;;2.33;;
70459;SDS011;57920;54.796;9.430;2022-08-21T15:39:18;11.30;;;3.67;;
70459;SDS011;57920;54.796;9.430;2022-08-21T15:41:44;7.10;;;2.73;;
70459;SDS011;57920;54.796;9.430;2022-08-21T15:44:10;11.47;;;3.20;;
70459;SDS011;57920;54.796;9.430;2022-08-21T15:46:38;10.57;;;3.03;;
70459;SDS011;57920;54.796;9.430;2022-08-21T15:49:04;7.37;;;2.13;;
70459;SDS011;57920;54.796;9.430;2022-08-21T15:51:29;6.60;;;2.50;;
70459;SDS011;57920;54.796;9.430;2022-08-21T15:53:55;11.77;;;2.60;;
70459;SDS011;57920;54.796;9.430;2022-08-21T15:56:22;5.60;;;2.23;;
70459;SDS011;57920;54.796;9.430;2022-08-21T15:58:50;3.70;;;1.90;;
70459;SDS011;57920;54.796;9.430;2022-08-21T16:01:22;4.57;;;2.33;;
70459;SDS011;57920;54.796;9.430;2022-08-21T16:03:48;5.50;;;1.70;;
70459;SDS011;57920;54.796;9.430;2022-08-21T16:06:16;3.47;;;2.00;;
70459;SDS011;57920;54.796;9.430;2022-08-21T16:08:42;4.50;;;2.20;;
70459;SDS011;57920;54.796;9.430;2022-08-21T16:11:07;6.17;;;2.23;;
70459;SDS011;57920;54.796;9.430;2022-08-21T16:13:44;5.20;;;2.07;;
70459;SDS011;57920;54.796;9.430;2022-08-21T16:16:11;4.80;;;1.90;;
70459;SDS011;57920;54.796;9.430;2022-08-21T16:18:39;5.03;;;1.80;;
70459;SDS011;57920;54.796;9.430;2022-08-21T16:21:05;3.67;;;1.73;;